Mapa de nuvens (SC)

Imagem satélite Climatempo

Mapa GOES 13 Colorida (Sul)

Imagem satélite Climatempo

Radar de chuvas (Lontras/SC)

Radar Ciram Epagri

Mapa de raios

Radios Simepar

Previsão para Florianópolis

Quinta-feira

Parcialmente nublado. Máxima de 21°C. Ventos SSE a 10 a 15 km/h.


Quinta à noite

Parcialmente nublado. Mínima 16°C. Ventos NO e variável.


Sexta-feira

Céu Limpo

23º / 18º

Sábado

Muito Nublado

23º / 18º

Domingo

Chuva

19º / 13º

Aeroporto Florianópolis/SC (FLN) - SBFL


Situação: Operando por instrumentos

Atualização: 0545 UTC 17 Aug 2017

Vento: 00KT (0,0 Km/h) - Norte (N) (000º)

Visibilidade: Maior que 10.000 metros (céu limpo)

Temperatura: 15ºC / 13ºC

Pressão: 1020 hPa

Data at: 0545 UTC 17 Aug 2017SBFL 170500Z 00000KT CAVOK 15/13 Q1020